<?xml version="1.0" encoding="UTF-8" standalone="no" ?>
<gpx xmlns="http://www.topografix.com/GPX/1/1" creator="MapSource 6.11.6" version="1.1" xmlns:xsi="http://www.w3.org/2001/XMLSchema-instance" xsi:schemaLocation="http://www.topografix.com/GPX/1/1 http://www.topografix.com/GPX/1/1/gpx.xsd">

  <metadata>
    <link href="http://www.garmin.com">
      <text>Garmin International</text>
    </link>
    <time>2009-09-20T16:58:21Z</time>
    <bounds maxlat="50.716462" maxlon="6.481367" minlat="50.692032" minlon="6.445693"/>
  </metadata>

  <trk>
    <name>Felsenrundgang Teil 2a</name>
    <extensions>
      <gpxx:TrackExtension xmlns:gpxx="http://www.garmin.com/xmlschemas/GpxExtensions/v3" xmlns:xsi="http://www.w3.org/2001/XMLSchema-instance" xsi:schemaLocation="http://www.garmin.com/xmlschemas/GpxExtensions/v3 http://www.garmin.com/xmlschemas/GpxExtensions/v3/GpxExtensionsv3.xsd">
        <gpxx:DisplayColor>White</gpxx:DisplayColor>
      </gpxx:TrackExtension>
    </extensions>
    <trkseg>
      <trkpt lat="50.692032" lon="6.479470">
        <ele>337.080000</ele>
        <time>2009-09-20T08:17:20Z</time>
      </trkpt>
      <trkpt lat="50.692399" lon="6.479510">
        <ele>338.040000</ele>
        <time>2009-09-20T08:18:13Z</time>
      </trkpt>
      <trkpt lat="50.692445" lon="6.479661">
        <ele>337.560000</ele>
        <time>2009-09-20T08:18:27Z</time>
      </trkpt>
      <trkpt lat="50.692532" lon="6.479622">
        <ele>336.600000</ele>
        <time>2009-09-20T08:18:34Z</time>
      </trkpt>
      <trkpt lat="50.692678" lon="6.479731">
        <ele>335.640000</ele>
        <time>2009-09-20T08:18:46Z</time>
      </trkpt>
      <trkpt lat="50.692821" lon="6.479897">
        <ele>334.680000</ele>
        <time>2009-09-20T08:18:57Z</time>
      </trkpt>
      <trkpt lat="50.692815" lon="6.479963">
        <ele>334.200000</ele>
        <time>2009-09-20T08:19:00Z</time>
      </trkpt>
      <trkpt lat="50.692825" lon="6.480042">
        <ele>333.710000</ele>
        <time>2009-09-20T08:19:05Z</time>
      </trkpt>
      <trkpt lat="50.692822" lon="6.480266">
        <ele>333.230000</ele>
        <time>2009-09-20T08:19:14Z</time>
      </trkpt>
      <trkpt lat="50.692805" lon="6.480347">
        <ele>332.750000</ele>
        <time>2009-09-20T08:19:17Z</time>
      </trkpt>
      <trkpt lat="50.692837" lon="6.480494">
        <ele>331.790000</ele>
        <time>2009-09-20T08:19:26Z</time>
      </trkpt>
      <trkpt lat="50.692837" lon="6.480527">
        <ele>331.790000</ele>
        <time>2009-09-20T08:19:28Z</time>
      </trkpt>
      <trkpt lat="50.692834" lon="6.480673">
        <ele>330.350000</ele>
        <time>2009-09-20T08:19:37Z</time>
      </trkpt>
      <trkpt lat="50.692800" lon="6.480929">
        <ele>329.390000</ele>
        <time>2009-09-20T08:19:50Z</time>
      </trkpt>
      <trkpt lat="50.692790" lon="6.480984">
        <ele>328.910000</ele>
        <time>2009-09-20T08:19:52Z</time>
      </trkpt>
      <trkpt lat="50.692773" lon="6.481033">
        <ele>328.430000</ele>
        <time>2009-09-20T08:19:54Z</time>
      </trkpt>
      <trkpt lat="50.692795" lon="6.481128">
        <ele>328.430000</ele>
        <time>2009-09-20T08:19:58Z</time>
      </trkpt>
      <trkpt lat="50.692885" lon="6.481296">
        <ele>326.500000</ele>
        <time>2009-09-20T08:20:11Z</time>
      </trkpt>
      <trkpt lat="50.692963" lon="6.481367">
        <ele>324.580000</ele>
        <time>2009-09-20T08:20:26Z</time>
      </trkpt>
      <trkpt lat="50.693038" lon="6.481193">
        <ele>321.700000</ele>
        <time>2009-09-20T08:20:43Z</time>
      </trkpt>
      <trkpt lat="50.693170" lon="6.481101">
        <ele>318.330000</ele>
        <time>2009-09-20T08:20:56Z</time>
      </trkpt>
      <trkpt lat="50.693266" lon="6.480994">
        <ele>315.450000</ele>
        <time>2009-09-20T08:21:07Z</time>
      </trkpt>
      <trkpt lat="50.693291" lon="6.480927">
        <ele>312.090000</ele>
        <time>2009-09-20T08:21:22Z</time>
      </trkpt>
      <trkpt lat="50.693433" lon="6.480780">
        <ele>312.570000</ele>
        <time>2009-09-20T08:21:46Z</time>
      </trkpt>
      <trkpt lat="50.693568" lon="6.480578">
        <ele>313.530000</ele>
        <time>2009-09-20T08:22:07Z</time>
      </trkpt>
      <trkpt lat="50.693722" lon="6.480234">
        <ele>314.010000</ele>
        <time>2009-09-20T08:22:22Z</time>
      </trkpt>
      <trkpt lat="50.693950" lon="6.480122">
        <ele>314.490000</ele>
        <time>2009-09-20T08:22:43Z</time>
      </trkpt>
      <trkpt lat="50.694125" lon="6.480172">
        <ele>314.010000</ele>
        <time>2009-09-20T08:23:02Z</time>
      </trkpt>
      <trkpt lat="50.694103" lon="6.480070">
        <ele>312.570000</ele>
        <time>2009-09-20T08:23:43Z</time>
      </trkpt>
      <trkpt lat="50.694104" lon="6.479827">
        <ele>312.570000</ele>
        <time>2009-09-20T08:23:59Z</time>
      </trkpt>
      <trkpt lat="50.694153" lon="6.479731">
        <ele>312.570000</ele>
        <time>2009-09-20T08:24:06Z</time>
      </trkpt>
      <trkpt lat="50.694265" lon="6.479545">
        <ele>312.570000</ele>
        <time>2009-09-20T08:24:19Z</time>
      </trkpt>
      <trkpt lat="50.694340" lon="6.479426">
        <ele>312.090000</ele>
        <time>2009-09-20T08:24:38Z</time>
      </trkpt>
      <trkpt lat="50.694448" lon="6.479335">
        <ele>312.090000</ele>
        <time>2009-09-20T08:24:56Z</time>
      </trkpt>
      <trkpt lat="50.694456" lon="6.479171">
        <ele>311.600000</ele>
        <time>2009-09-20T08:25:11Z</time>
      </trkpt>
      <trkpt lat="50.694457" lon="6.478803">
        <ele>310.160000</ele>
        <time>2009-09-20T08:25:29Z</time>
      </trkpt>
      <trkpt lat="50.694468" lon="6.478698">
        <ele>310.640000</ele>
        <time>2009-09-20T08:25:36Z</time>
      </trkpt>
      <trkpt lat="50.694524" lon="6.478499">
        <ele>309.680000</ele>
        <time>2009-09-20T08:25:51Z</time>
      </trkpt>
      <trkpt lat="50.694493" lon="6.478437">
        <ele>308.720000</ele>
        <time>2009-09-20T08:25:56Z</time>
      </trkpt>
      <trkpt lat="50.694445" lon="6.478380">
        <ele>308.240000</ele>
        <time>2009-09-20T08:26:00Z</time>
      </trkpt>
      <trkpt lat="50.694409" lon="6.478334">
        <ele>307.760000</ele>
        <time>2009-09-20T08:26:04Z</time>
      </trkpt>
      <trkpt lat="50.694368" lon="6.478275">
        <ele>306.800000</ele>
        <time>2009-09-20T08:26:09Z</time>
      </trkpt>
      <trkpt lat="50.694337" lon="6.478267">
        <ele>306.320000</ele>
        <time>2009-09-20T08:26:13Z</time>
      </trkpt>
      <trkpt lat="50.694296" lon="6.478230">
        <ele>306.800000</ele>
        <time>2009-09-20T08:26:18Z</time>
      </trkpt>
      <trkpt lat="50.694229" lon="6.477945">
        <ele>307.280000</ele>
        <time>2009-09-20T08:26:31Z</time>
      </trkpt>
      <trkpt lat="50.694257" lon="6.477839">
        <ele>307.760000</ele>
        <time>2009-09-20T08:26:34Z</time>
      </trkpt>
      <trkpt lat="50.694263" lon="6.477586">
        <ele>309.200000</ele>
        <time>2009-09-20T08:26:48Z</time>
      </trkpt>
      <trkpt lat="50.694234" lon="6.477519">
        <ele>312.090000</ele>
        <time>2009-09-20T08:27:06Z</time>
      </trkpt>
      <trkpt lat="50.694198" lon="6.477353">
        <ele>314.970000</ele>
        <time>2009-09-20T08:27:23Z</time>
      </trkpt>
      <trkpt lat="50.694049" lon="6.477114">
        <ele>318.330000</ele>
        <time>2009-09-20T08:27:45Z</time>
      </trkpt>
      <trkpt lat="50.693987" lon="6.476960">
        <ele>317.850000</ele>
        <time>2009-09-20T08:28:03Z</time>
      </trkpt>
      <trkpt lat="50.693926" lon="6.476915">
        <ele>314.490000</ele>
        <time>2009-09-20T08:28:15Z</time>
      </trkpt>
      <trkpt lat="50.693792" lon="6.476909">
        <ele>312.570000</ele>
        <time>2009-09-20T08:28:32Z</time>
      </trkpt>
      <trkpt lat="50.693764" lon="6.476985">
        <ele>311.120000</ele>
        <time>2009-09-20T08:28:52Z</time>
      </trkpt>
      <trkpt lat="50.693778" lon="6.476946">
        <ele>310.640000</ele>
        <time>2009-09-20T08:29:29Z</time>
      </trkpt>
      <trkpt lat="50.693777" lon="6.476965">
        <ele>310.160000</ele>
        <time>2009-09-20T08:29:53Z</time>
      </trkpt>
      <trkpt lat="50.693744" lon="6.476958">
        <ele>309.680000</ele>
        <time>2009-09-20T08:30:17Z</time>
      </trkpt>
      <trkpt lat="50.693897" lon="6.476874">
        <ele>309.200000</ele>
        <time>2009-09-20T08:32:00Z</time>
      </trkpt>
      <trkpt lat="50.694018" lon="6.476926">
        <ele>312.090000</ele>
        <time>2009-09-20T08:32:17Z</time>
      </trkpt>
      <trkpt lat="50.694075" lon="6.477100">
        <ele>313.530000</ele>
        <time>2009-09-20T08:32:37Z</time>
      </trkpt>
      <trkpt lat="50.694050" lon="6.476938">
        <ele>313.050000</ele>
        <time>2009-09-20T08:32:59Z</time>
      </trkpt>
      <trkpt lat="50.694152" lon="6.476715">
        <ele>314.970000</ele>
        <time>2009-09-20T08:33:21Z</time>
      </trkpt>
      <trkpt lat="50.694277" lon="6.476513">
        <ele>315.450000</ele>
        <time>2009-09-20T08:33:36Z</time>
      </trkpt>
      <trkpt lat="50.694320" lon="6.476145">
        <ele>315.930000</ele>
        <time>2009-09-20T08:33:57Z</time>
      </trkpt>
      <trkpt lat="50.694316" lon="6.475707">
        <ele>315.450000</ele>
        <time>2009-09-20T08:34:21Z</time>
      </trkpt>
      <trkpt lat="50.694123" lon="6.475483">
        <ele>314.010000</ele>
        <time>2009-09-20T08:34:43Z</time>
      </trkpt>
      <trkpt lat="50.693952" lon="6.475234">
        <ele>313.050000</ele>
        <time>2009-09-20T08:34:59Z</time>
      </trkpt>
      <trkpt lat="50.693667" lon="6.475068">
        <ele>310.160000</ele>
        <time>2009-09-20T08:35:20Z</time>
      </trkpt>
      <trkpt lat="50.693497" lon="6.475074">
        <ele>307.760000</ele>
        <time>2009-09-20T08:35:43Z</time>
      </trkpt>
      <trkpt lat="50.693393" lon="6.475158">
        <ele>308.240000</ele>
        <time>2009-09-20T08:35:54Z</time>
      </trkpt>
      <trkpt lat="50.693169" lon="6.475233">
        <ele>308.240000</ele>
        <time>2009-09-20T08:36:11Z</time>
      </trkpt>
      <trkpt lat="50.693102" lon="6.475302">
        <ele>306.320000</ele>
        <time>2009-09-20T08:36:32Z</time>
      </trkpt>
      <trkpt lat="50.693116" lon="6.475380">
        <ele>305.840000</ele>
        <time>2009-09-20T08:36:49Z</time>
      </trkpt>
      <trkpt lat="50.693153" lon="6.475249">
        <ele>305.840000</ele>
        <time>2009-09-20T08:37:23Z</time>
      </trkpt>
      <trkpt lat="50.693217" lon="6.475155">
        <ele>307.280000</ele>
        <time>2009-09-20T08:37:39Z</time>
      </trkpt>
      <trkpt lat="50.693184" lon="6.475050">
        <ele>308.240000</ele>
        <time>2009-09-20T08:37:53Z</time>
      </trkpt>
      <trkpt lat="50.693099" lon="6.474935">
        <ele>309.680000</ele>
        <time>2009-09-20T08:38:04Z</time>
      </trkpt>
      <trkpt lat="50.693030" lon="6.474755">
        <ele>310.640000</ele>
        <time>2009-09-20T08:38:23Z</time>
      </trkpt>
      <trkpt lat="50.692955" lon="6.474589">
        <ele>311.120000</ele>
        <time>2009-09-20T08:38:37Z</time>
      </trkpt>
      <trkpt lat="50.692977" lon="6.474513">
        <ele>311.120000</ele>
        <time>2009-09-20T08:38:40Z</time>
      </trkpt>
      <trkpt lat="50.692921" lon="6.474313">
        <ele>311.600000</ele>
        <time>2009-09-20T08:38:52Z</time>
      </trkpt>
      <trkpt lat="50.692906" lon="6.474293">
        <ele>311.600000</ele>
        <time>2009-09-20T08:38:54Z</time>
      </trkpt>
      <trkpt lat="50.692903" lon="6.474026">
        <ele>311.120000</ele>
        <time>2009-09-20T08:39:08Z</time>
      </trkpt>
      <trkpt lat="50.692818" lon="6.473878">
        <ele>310.640000</ele>
        <time>2009-09-20T08:39:20Z</time>
      </trkpt>
      <trkpt lat="50.692685" lon="6.473685">
        <ele>310.640000</ele>
        <time>2009-09-20T08:39:36Z</time>
      </trkpt>
      <trkpt lat="50.692683" lon="6.473679">
        <ele>309.680000</ele>
        <time>2009-09-20T08:39:56Z</time>
      </trkpt>
      <trkpt lat="50.692706" lon="6.473731">
        <ele>308.720000</ele>
        <time>2009-09-20T08:40:18Z</time>
      </trkpt>
      <trkpt lat="50.692714" lon="6.473648">
        <ele>310.160000</ele>
        <time>2009-09-20T08:40:34Z</time>
      </trkpt>
      <trkpt lat="50.692671" lon="6.473491">
        <ele>309.200000</ele>
        <time>2009-09-20T08:40:50Z</time>
      </trkpt>
      <trkpt lat="50.692699" lon="6.473402">
        <ele>309.680000</ele>
        <time>2009-09-20T08:41:04Z</time>
      </trkpt>
      <trkpt lat="50.692681" lon="6.473445">
        <ele>308.240000</ele>
        <time>2009-09-20T08:41:26Z</time>
      </trkpt>
      <trkpt lat="50.692723" lon="6.473529">
        <ele>309.200000</ele>
        <time>2009-09-20T08:42:00Z</time>
      </trkpt>
      <trkpt lat="50.692755" lon="6.473644">
        <ele>309.200000</ele>
        <time>2009-09-20T08:42:19Z</time>
      </trkpt>
      <trkpt lat="50.692780" lon="6.473646">
        <ele>309.680000</ele>
        <time>2009-09-20T08:42:31Z</time>
      </trkpt>
      <trkpt lat="50.692827" lon="6.473557">
        <ele>309.200000</ele>
        <time>2009-09-20T08:42:47Z</time>
      </trkpt>
      <trkpt lat="50.692854" lon="6.473397">
        <ele>309.200000</ele>
        <time>2009-09-20T08:43:05Z</time>
      </trkpt>
      <trkpt lat="50.692906" lon="6.473361">
        <ele>308.720000</ele>
        <time>2009-09-20T08:43:43Z</time>
      </trkpt>
      <trkpt lat="50.692909" lon="6.473182">
        <ele>308.720000</ele>
        <time>2009-09-20T08:43:57Z</time>
      </trkpt>
      <trkpt lat="50.693003" lon="6.472982">
        <ele>309.200000</ele>
        <time>2009-09-20T08:44:17Z</time>
      </trkpt>
      <trkpt lat="50.692997" lon="6.472935">
        <ele>309.200000</ele>
        <time>2009-09-20T08:44:20Z</time>
      </trkpt>
      <trkpt lat="50.693012" lon="6.472860">
        <ele>308.720000</ele>
        <time>2009-09-20T08:44:37Z</time>
      </trkpt>
      <trkpt lat="50.693038" lon="6.472865">
        <ele>310.160000</ele>
        <time>2009-09-20T08:44:54Z</time>
      </trkpt>
      <trkpt lat="50.692996" lon="6.472802">
        <ele>308.720000</ele>
        <time>2009-09-20T08:45:21Z</time>
      </trkpt>
      <trkpt lat="50.693051" lon="6.472617">
        <ele>310.160000</ele>
        <time>2009-09-20T08:45:35Z</time>
      </trkpt>
      <trkpt lat="50.693109" lon="6.472276">
        <ele>312.570000</ele>
        <time>2009-09-20T08:45:58Z</time>
      </trkpt>
      <trkpt lat="50.693029" lon="6.472136">
        <ele>314.490000</ele>
        <time>2009-09-20T08:46:14Z</time>
      </trkpt>
      <trkpt lat="50.692949" lon="6.471951">
        <ele>314.490000</ele>
        <time>2009-09-20T08:46:35Z</time>
      </trkpt>
      <trkpt lat="50.692901" lon="6.472035">
        <ele>311.600000</ele>
        <time>2009-09-20T08:46:50Z</time>
      </trkpt>
      <trkpt lat="50.692825" lon="6.472079">
        <ele>309.680000</ele>
        <time>2009-09-20T08:47:14Z</time>
      </trkpt>
      <trkpt lat="50.692808" lon="6.472110">
        <ele>309.200000</ele>
        <time>2009-09-20T08:47:35Z</time>
      </trkpt>
      <trkpt lat="50.692788" lon="6.472109">
        <ele>308.720000</ele>
        <time>2009-09-20T08:48:09Z</time>
      </trkpt>
      <trkpt lat="50.692796" lon="6.472147">
        <ele>308.240000</ele>
        <time>2009-09-20T08:48:32Z</time>
      </trkpt>
      <trkpt lat="50.692822" lon="6.472196">
        <ele>308.240000</ele>
        <time>2009-09-20T08:49:15Z</time>
      </trkpt>
      <trkpt lat="50.692887" lon="6.472050">
        <ele>311.120000</ele>
        <time>2009-09-20T08:51:40Z</time>
      </trkpt>
      <trkpt lat="50.692937" lon="6.471961">
        <ele>314.010000</ele>
        <time>2009-09-20T08:51:52Z</time>
      </trkpt>
      <trkpt lat="50.693050" lon="6.471919">
        <ele>314.970000</ele>
        <time>2009-09-20T08:52:03Z</time>
      </trkpt>
      <trkpt lat="50.693181" lon="6.471680">
        <ele>314.010000</ele>
        <time>2009-09-20T08:52:24Z</time>
      </trkpt>
      <trkpt lat="50.693303" lon="6.471474">
        <ele>313.050000</ele>
        <time>2009-09-20T08:52:40Z</time>
      </trkpt>
      <trkpt lat="50.693269" lon="6.471024">
        <ele>313.050000</ele>
        <time>2009-09-20T08:52:59Z</time>
      </trkpt>
      <trkpt lat="50.693065" lon="6.470729">
        <ele>314.010000</ele>
        <time>2009-09-20T08:53:23Z</time>
      </trkpt>
      <trkpt lat="50.692910" lon="6.470628">
        <ele>315.450000</ele>
        <time>2009-09-20T08:53:35Z</time>
      </trkpt>
      <trkpt lat="50.692842" lon="6.470538">
        <ele>316.410000</ele>
        <time>2009-09-20T08:53:41Z</time>
      </trkpt>
      <trkpt lat="50.692813" lon="6.470219">
        <ele>318.330000</ele>
        <time>2009-09-20T08:54:01Z</time>
      </trkpt>
      <trkpt lat="50.692833" lon="6.470153">
        <ele>318.330000</ele>
        <time>2009-09-20T08:54:05Z</time>
      </trkpt>
      <trkpt lat="50.692770" lon="6.469748">
        <ele>321.700000</ele>
        <time>2009-09-20T08:54:30Z</time>
      </trkpt>
      <trkpt lat="50.692764" lon="6.469741">
        <ele>321.700000</ele>
        <time>2009-09-20T08:54:31Z</time>
      </trkpt>
      <trkpt lat="50.692715" lon="6.469531">
        <ele>322.660000</ele>
        <time>2009-09-20T08:54:39Z</time>
      </trkpt>
      <trkpt lat="50.692713" lon="6.469485">
        <ele>323.140000</ele>
        <time>2009-09-20T08:54:41Z</time>
      </trkpt>
      <trkpt lat="50.692701" lon="6.469265">
        <ele>323.620000</ele>
        <time>2009-09-20T08:54:57Z</time>
      </trkpt>
      <trkpt lat="50.692671" lon="6.469267">
        <ele>323.140000</ele>
        <time>2009-09-20T08:55:16Z</time>
      </trkpt>
      <trkpt lat="50.692642" lon="6.469238">
        <ele>322.180000</ele>
        <time>2009-09-20T08:55:38Z</time>
      </trkpt>
      <trkpt lat="50.692675" lon="6.469310">
        <ele>323.620000</ele>
        <time>2009-09-20T08:56:32Z</time>
      </trkpt>
      <trkpt lat="50.692679" lon="6.469282">
        <ele>323.620000</ele>
        <time>2009-09-20T08:57:06Z</time>
      </trkpt>
      <trkpt lat="50.692707" lon="6.469363">
        <ele>323.620000</ele>
        <time>2009-09-20T08:57:22Z</time>
      </trkpt>
      <trkpt lat="50.692777" lon="6.469379">
        <ele>324.580000</ele>
        <time>2009-09-20T08:57:35Z</time>
      </trkpt>
      <trkpt lat="50.692930" lon="6.469494">
        <ele>326.500000</ele>
        <time>2009-09-20T08:57:52Z</time>
      </trkpt>
      <trkpt lat="50.693116" lon="6.469431">
        <ele>328.430000</ele>
        <time>2009-09-20T08:58:12Z</time>
      </trkpt>
      <trkpt lat="50.693182" lon="6.469343">
        <ele>329.390000</ele>
        <time>2009-09-20T08:58:22Z</time>
      </trkpt>
      <trkpt lat="50.693329" lon="6.469107">
        <ele>331.310000</ele>
        <time>2009-09-20T08:58:44Z</time>
      </trkpt>
      <trkpt lat="50.693350" lon="6.468941">
        <ele>333.230000</ele>
        <time>2009-09-20T08:59:03Z</time>
      </trkpt>
      <trkpt lat="50.693317" lon="6.468618">
        <ele>336.120000</ele>
        <time>2009-09-20T08:59:24Z</time>
      </trkpt>
      <trkpt lat="50.693346" lon="6.468530">
        <ele>337.080000</ele>
        <time>2009-09-20T08:59:40Z</time>
      </trkpt>
      <trkpt lat="50.693383" lon="6.468566">
        <ele>337.080000</ele>
        <time>2009-09-20T09:00:24Z</time>
      </trkpt>
      <trkpt lat="50.693406" lon="6.468318">
        <ele>335.160000</ele>
        <time>2009-09-20T09:01:57Z</time>
      </trkpt>
      <trkpt lat="50.693409" lon="6.468060">
        <ele>334.200000</ele>
        <time>2009-09-20T09:02:10Z</time>
      </trkpt>
      <trkpt lat="50.693387" lon="6.467878">
        <ele>333.230000</ele>
        <time>2009-09-20T09:02:22Z</time>
      </trkpt>
      <trkpt lat="50.693437" lon="6.467606">
        <ele>331.790000</ele>
        <time>2009-09-20T09:02:38Z</time>
      </trkpt>
      <trkpt lat="50.693332" lon="6.467346">
        <ele>331.790000</ele>
        <time>2009-09-20T09:02:56Z</time>
      </trkpt>
      <trkpt lat="50.693264" lon="6.467095">
        <ele>330.830000</ele>
        <time>2009-09-20T09:03:13Z</time>
      </trkpt>
      <trkpt lat="50.693267" lon="6.466877">
        <ele>330.830000</ele>
        <time>2009-09-20T09:03:32Z</time>
      </trkpt>
      <trkpt lat="50.693134" lon="6.466812">
        <ele>328.430000</ele>
        <time>2009-09-20T09:03:49Z</time>
      </trkpt>
      <trkpt lat="50.693122" lon="6.466797">
        <ele>327.950000</ele>
        <time>2009-09-20T09:03:51Z</time>
      </trkpt>
      <trkpt lat="50.693081" lon="6.466848">
        <ele>327.950000</ele>
        <time>2009-09-20T09:04:05Z</time>
      </trkpt>
      <trkpt lat="50.693100" lon="6.466833">
        <ele>328.430000</ele>
        <time>2009-09-20T09:04:27Z</time>
      </trkpt>
      <trkpt lat="50.693099" lon="6.466809">
        <ele>327.950000</ele>
        <time>2009-09-20T09:04:58Z</time>
      </trkpt>
      <trkpt lat="50.693119" lon="6.466766">
        <ele>326.990000</ele>
        <time>2009-09-20T09:05:15Z</time>
      </trkpt>
      <trkpt lat="50.693192" lon="6.466850">
        <ele>327.950000</ele>
        <time>2009-09-20T09:06:31Z</time>
      </trkpt>
      <trkpt lat="50.693152" lon="6.466814">
        <ele>327.950000</ele>
        <time>2009-09-20T09:07:06Z</time>
      </trkpt>
      <trkpt lat="50.693260" lon="6.466744">
        <ele>329.390000</ele>
        <time>2009-09-20T09:07:29Z</time>
      </trkpt>
      <trkpt lat="50.693259" lon="6.466749">
        <ele>328.910000</ele>
        <time>2009-09-20T09:07:50Z</time>
      </trkpt>
      <trkpt lat="50.693206" lon="6.466698">
        <ele>328.430000</ele>
        <time>2009-09-20T09:08:40Z</time>
      </trkpt>
      <trkpt lat="50.693248" lon="6.466743">
        <ele>328.430000</ele>
        <time>2009-09-20T09:09:01Z</time>
      </trkpt>
      <trkpt lat="50.693342" lon="6.466893">
        <ele>329.390000</ele>
        <time>2009-09-20T09:09:21Z</time>
      </trkpt>
      <trkpt lat="50.693419" lon="6.467054">
        <ele>329.390000</ele>
        <time>2009-09-20T09:10:15Z</time>
      </trkpt>
      <trkpt lat="50.693616" lon="6.467177">
        <ele>328.430000</ele>
        <time>2009-09-20T09:10:34Z</time>
      </trkpt>
      <trkpt lat="50.693724" lon="6.467176">
        <ele>327.950000</ele>
        <time>2009-09-20T09:10:47Z</time>
      </trkpt>
      <trkpt lat="50.693867" lon="6.467231">
        <ele>326.500000</ele>
        <time>2009-09-20T09:11:06Z</time>
      </trkpt>
      <trkpt lat="50.694049" lon="6.467230">
        <ele>323.620000</ele>
        <time>2009-09-20T09:11:23Z</time>
      </trkpt>
      <trkpt lat="50.694057" lon="6.467119">
        <ele>323.140000</ele>
        <time>2009-09-20T09:11:30Z</time>
      </trkpt>
      <trkpt lat="50.694187" lon="6.466798">
        <ele>321.220000</ele>
        <time>2009-09-20T09:11:49Z</time>
      </trkpt>
      <trkpt lat="50.694198" lon="6.466635">
        <ele>321.220000</ele>
        <time>2009-09-20T09:11:55Z</time>
      </trkpt>
      <trkpt lat="50.694255" lon="6.466384">
        <ele>319.780000</ele>
        <time>2009-09-20T09:12:07Z</time>
      </trkpt>
      <trkpt lat="50.694310" lon="6.466202">
        <ele>318.810000</ele>
        <time>2009-09-20T09:12:17Z</time>
      </trkpt>
      <trkpt lat="50.694333" lon="6.466032">
        <ele>317.370000</ele>
        <time>2009-09-20T09:12:28Z</time>
      </trkpt>
      <trkpt lat="50.694491" lon="6.466131">
        <ele>314.490000</ele>
        <time>2009-09-20T09:12:47Z</time>
      </trkpt>
      <trkpt lat="50.694623" lon="6.466271">
        <ele>313.050000</ele>
        <time>2009-09-20T09:12:57Z</time>
      </trkpt>
      <trkpt lat="50.694811" lon="6.466475">
        <ele>312.570000</ele>
        <time>2009-09-20T09:13:17Z</time>
      </trkpt>
      <trkpt lat="50.694844" lon="6.466664">
        <ele>311.120000</ele>
        <time>2009-09-20T09:13:53Z</time>
      </trkpt>
      <trkpt lat="50.694934" lon="6.466762">
        <ele>308.240000</ele>
        <time>2009-09-20T09:14:09Z</time>
      </trkpt>
      <trkpt lat="50.695026" lon="6.466947">
        <ele>304.880000</ele>
        <time>2009-09-20T09:14:24Z</time>
      </trkpt>
      <trkpt lat="50.695082" lon="6.466983">
        <ele>303.430000</ele>
        <time>2009-09-20T09:14:45Z</time>
      </trkpt>
      <trkpt lat="50.695100" lon="6.466973">
        <ele>302.470000</ele>
        <time>2009-09-20T09:15:04Z</time>
      </trkpt>
      <trkpt lat="50.695089" lon="6.466936">
        <ele>302.470000</ele>
        <time>2009-09-20T09:15:45Z</time>
      </trkpt>
      <trkpt lat="50.695135" lon="6.466892">
        <ele>302.470000</ele>
        <time>2009-09-20T09:16:26Z</time>
      </trkpt>
      <trkpt lat="50.695146" lon="6.467065">
        <ele>303.430000</ele>
        <time>2009-09-20T09:16:49Z</time>
      </trkpt>
      <trkpt lat="50.695236" lon="6.467346">
        <ele>303.430000</ele>
        <time>2009-09-20T09:17:18Z</time>
      </trkpt>
      <trkpt lat="50.695288" lon="6.467354">
        <ele>303.910000</ele>
        <time>2009-09-20T09:17:51Z</time>
      </trkpt>
      <trkpt lat="50.695358" lon="6.467266">
        <ele>307.280000</ele>
        <time>2009-09-20T09:18:27Z</time>
      </trkpt>
      <trkpt lat="50.695316" lon="6.467320">
        <ele>307.280000</ele>
        <time>2009-09-20T09:18:41Z</time>
      </trkpt>
      <trkpt lat="50.695219" lon="6.467321">
        <ele>309.200000</ele>
        <time>2009-09-20T09:19:01Z</time>
      </trkpt>
      <trkpt lat="50.695307" lon="6.467236">
        <ele>312.090000</ele>
        <time>2009-09-20T09:19:19Z</time>
      </trkpt>
      <trkpt lat="50.695389" lon="6.467330">
        <ele>315.450000</ele>
        <time>2009-09-20T09:19:37Z</time>
      </trkpt>
      <trkpt lat="50.695511" lon="6.467525">
        <ele>316.890000</ele>
        <time>2009-09-20T09:19:57Z</time>
      </trkpt>
      <trkpt lat="50.695638" lon="6.467438">
        <ele>315.930000</ele>
        <time>2009-09-20T09:20:17Z</time>
      </trkpt>
      <trkpt lat="50.695661" lon="6.467347">
        <ele>315.930000</ele>
        <time>2009-09-20T09:21:01Z</time>
      </trkpt>
      <trkpt lat="50.695652" lon="6.467501">
        <ele>315.930000</ele>
        <time>2009-09-20T09:22:21Z</time>
      </trkpt>
      <trkpt lat="50.695636" lon="6.467613">
        <ele>319.300000</ele>
        <time>2009-09-20T09:22:33Z</time>
      </trkpt>
      <trkpt lat="50.695666" lon="6.467672">
        <ele>320.260000</ele>
        <time>2009-09-20T09:22:39Z</time>
      </trkpt>
      <trkpt lat="50.695806" lon="6.467869">
        <ele>323.140000</ele>
        <time>2009-09-20T09:22:59Z</time>
      </trkpt>
      <trkpt lat="50.695851" lon="6.467937">
        <ele>323.620000</ele>
        <time>2009-09-20T09:23:05Z</time>
      </trkpt>
      <trkpt lat="50.696029" lon="6.468199">
        <ele>326.990000</ele>
        <time>2009-09-20T09:23:27Z</time>
      </trkpt>
      <trkpt lat="50.696038" lon="6.468213">
        <ele>326.990000</ele>
        <time>2009-09-20T09:23:28Z</time>
      </trkpt>
      <trkpt lat="50.696078" lon="6.468457">
        <ele>329.390000</ele>
        <time>2009-09-20T09:23:46Z</time>
      </trkpt>
      <trkpt lat="50.696116" lon="6.468650">
        <ele>330.350000</ele>
        <time>2009-09-20T09:24:07Z</time>
      </trkpt>
      <trkpt lat="50.696164" lon="6.468861">
        <ele>332.270000</ele>
        <time>2009-09-20T09:24:34Z</time>
      </trkpt>
      <trkpt lat="50.696137" lon="6.469170">
        <ele>332.270000</ele>
        <time>2009-09-20T09:24:57Z</time>
      </trkpt>
      <trkpt lat="50.696146" lon="6.469427">
        <ele>332.750000</ele>
        <time>2009-09-20T09:25:12Z</time>
      </trkpt>
      <trkpt lat="50.696084" lon="6.469853">
        <ele>332.270000</ele>
        <time>2009-09-20T09:25:25Z</time>
      </trkpt>
      <trkpt lat="50.696181" lon="6.470268">
        <ele>328.910000</ele>
        <time>2009-09-20T09:25:47Z</time>
      </trkpt>
      <trkpt lat="50.696183" lon="6.470359">
        <ele>328.430000</ele>
        <time>2009-09-20T09:25:51Z</time>
      </trkpt>
      <trkpt lat="50.696248" lon="6.470791">
        <ele>326.990000</ele>
        <time>2009-09-20T09:26:11Z</time>
      </trkpt>
      <trkpt lat="50.696390" lon="6.470928">
        <ele>326.500000</ele>
        <time>2009-09-20T09:26:27Z</time>
      </trkpt>
      <trkpt lat="50.696525" lon="6.470960">
        <ele>326.500000</ele>
        <time>2009-09-20T09:26:37Z</time>
      </trkpt>
      <trkpt lat="50.696613" lon="6.470915">
        <ele>326.500000</ele>
        <time>2009-09-20T09:26:48Z</time>
      </trkpt>
      <trkpt lat="50.696801" lon="6.470914">
        <ele>326.990000</ele>
        <time>2009-09-20T09:27:02Z</time>
      </trkpt>
      <trkpt lat="50.696882" lon="6.471013">
        <ele>328.430000</ele>
        <time>2009-09-20T09:27:12Z</time>
      </trkpt>
      <trkpt lat="50.696933" lon="6.471168">
        <ele>328.910000</ele>
        <time>2009-09-20T09:27:20Z</time>
      </trkpt>
      <trkpt lat="50.697030" lon="6.471406">
        <ele>327.950000</ele>
        <time>2009-09-20T09:27:35Z</time>
      </trkpt>
      <trkpt lat="50.697062" lon="6.471636">
        <ele>326.990000</ele>
        <time>2009-09-20T09:27:48Z</time>
      </trkpt>
      <trkpt lat="50.697074" lon="6.471712">
        <ele>326.500000</ele>
        <time>2009-09-20T09:27:52Z</time>
      </trkpt>
      <trkpt lat="50.697149" lon="6.472030">
        <ele>323.620000</ele>
        <time>2009-09-20T09:28:12Z</time>
      </trkpt>
      <trkpt lat="50.697269" lon="6.472514">
        <ele>322.660000</ele>
        <time>2009-09-20T09:28:31Z</time>
      </trkpt>
      <trkpt lat="50.697342" lon="6.472607">
        <ele>323.140000</ele>
        <time>2009-09-20T09:28:41Z</time>
      </trkpt>
      <trkpt lat="50.697483" lon="6.472625">
        <ele>322.660000</ele>
        <time>2009-09-20T09:29:00Z</time>
      </trkpt>
      <trkpt lat="50.697561" lon="6.472654">
        <ele>322.180000</ele>
        <time>2009-09-20T09:29:16Z</time>
      </trkpt>
      <trkpt lat="50.697685" lon="6.472662">
        <ele>321.700000</ele>
        <time>2009-09-20T09:29:26Z</time>
      </trkpt>
      <trkpt lat="50.697897" lon="6.472627">
        <ele>323.620000</ele>
        <time>2009-09-20T09:29:42Z</time>
      </trkpt>
      <trkpt lat="50.698103" lon="6.472523">
        <ele>326.020000</ele>
        <time>2009-09-20T09:30:00Z</time>
      </trkpt>
      <trkpt lat="50.698169" lon="6.472344">
        <ele>325.540000</ele>
        <time>2009-09-20T09:30:14Z</time>
      </trkpt>
      <trkpt lat="50.698195" lon="6.472150">
        <ele>324.580000</ele>
        <time>2009-09-20T09:30:26Z</time>
      </trkpt>
      <trkpt lat="50.698288" lon="6.471800">
        <ele>323.620000</ele>
        <time>2009-09-20T09:30:45Z</time>
      </trkpt>
      <trkpt lat="50.698423" lon="6.471491">
        <ele>322.180000</ele>
        <time>2009-09-20T09:31:04Z</time>
      </trkpt>
      <trkpt lat="50.698447" lon="6.471490">
        <ele>322.180000</ele>
        <time>2009-09-20T09:31:05Z</time>
      </trkpt>
      <trkpt lat="50.698497" lon="6.471224">
        <ele>321.700000</ele>
        <time>2009-09-20T09:31:18Z</time>
      </trkpt>
      <trkpt lat="50.698650" lon="6.470841">
        <ele>320.740000</ele>
        <time>2009-09-20T09:31:41Z</time>
      </trkpt>
      <trkpt lat="50.698768" lon="6.470489">
        <ele>320.260000</ele>
        <time>2009-09-20T09:32:01Z</time>
      </trkpt>
      <trkpt lat="50.698949" lon="6.470236">
        <ele>318.330000</ele>
        <time>2009-09-20T09:32:21Z</time>
      </trkpt>
      <trkpt lat="50.698997" lon="6.470165">
        <ele>317.850000</ele>
        <time>2009-09-20T09:32:26Z</time>
      </trkpt>
      <trkpt lat="50.699100" lon="6.469968">
        <ele>316.410000</ele>
        <time>2009-09-20T09:32:40Z</time>
      </trkpt>
      <trkpt lat="50.699110" lon="6.469857">
        <ele>315.450000</ele>
        <time>2009-09-20T09:32:45Z</time>
      </trkpt>
      <trkpt lat="50.699072" lon="6.469633">
        <ele>314.010000</ele>
        <time>2009-09-20T09:32:59Z</time>
      </trkpt>
      <trkpt lat="50.699196" lon="6.469464">
        <ele>313.530000</ele>
        <time>2009-09-20T09:33:15Z</time>
      </trkpt>
      <trkpt lat="50.699292" lon="6.469204">
        <ele>315.450000</ele>
        <time>2009-09-20T09:33:34Z</time>
      </trkpt>
      <trkpt lat="50.699416" lon="6.468937">
        <ele>314.970000</ele>
        <time>2009-09-20T09:33:53Z</time>
      </trkpt>
      <trkpt lat="50.699425" lon="6.468606">
        <ele>313.530000</ele>
        <time>2009-09-20T09:34:11Z</time>
      </trkpt>
      <trkpt lat="50.699426" lon="6.468521">
        <ele>313.530000</ele>
        <time>2009-09-20T09:34:15Z</time>
      </trkpt>
      <trkpt lat="50.699488" lon="6.468324">
        <ele>312.090000</ele>
        <time>2009-09-20T09:34:30Z</time>
      </trkpt>
      <trkpt lat="50.699530" lon="6.468084">
        <ele>311.120000</ele>
        <time>2009-09-20T09:34:47Z</time>
      </trkpt>
      <trkpt lat="50.699542" lon="6.468053">
        <ele>311.600000</ele>
        <time>2009-09-20T09:34:49Z</time>
      </trkpt>
      <trkpt lat="50.699622" lon="6.468000">
        <ele>311.120000</ele>
        <time>2009-09-20T09:35:08Z</time>
      </trkpt>
      <trkpt lat="50.699738" lon="6.467803">
        <ele>309.200000</ele>
        <time>2009-09-20T09:35:25Z</time>
      </trkpt>
      <trkpt lat="50.699805" lon="6.467705">
        <ele>308.240000</ele>
        <time>2009-09-20T09:35:45Z</time>
      </trkpt>
      <trkpt lat="50.699996" lon="6.467760">
        <ele>309.680000</ele>
        <time>2009-09-20T09:36:04Z</time>
      </trkpt>
      <trkpt lat="50.700122" lon="6.467651">
        <ele>308.240000</ele>
        <time>2009-09-20T09:36:20Z</time>
      </trkpt>
      <trkpt lat="50.700228" lon="6.467557">
        <ele>306.800000</ele>
        <time>2009-09-20T09:36:30Z</time>
      </trkpt>
      <trkpt lat="50.700407" lon="6.467400">
        <ele>304.880000</ele>
        <time>2009-09-20T09:36:50Z</time>
      </trkpt>
      <trkpt lat="50.700488" lon="6.467258">
        <ele>304.390000</ele>
        <time>2009-09-20T09:37:01Z</time>
      </trkpt>
      <trkpt lat="50.700520" lon="6.467125">
        <ele>303.910000</ele>
        <time>2009-09-20T09:37:08Z</time>
      </trkpt>
      <trkpt lat="50.700516" lon="6.467046">
        <ele>303.910000</ele>
        <time>2009-09-20T09:37:13Z</time>
      </trkpt>
      <trkpt lat="50.700605" lon="6.466982">
        <ele>304.880000</ele>
        <time>2009-09-20T09:37:27Z</time>
      </trkpt>
      <trkpt lat="50.700687" lon="6.466775">
        <ele>301.990000</ele>
        <time>2009-09-20T09:37:43Z</time>
      </trkpt>
      <trkpt lat="50.700768" lon="6.466632">
        <ele>301.510000</ele>
        <time>2009-09-20T09:37:56Z</time>
      </trkpt>
      <trkpt lat="50.700833" lon="6.466506">
        <ele>301.990000</ele>
        <time>2009-09-20T09:38:16Z</time>
      </trkpt>
      <trkpt lat="50.700852" lon="6.466515">
        <ele>301.990000</ele>
        <time>2009-09-20T09:38:17Z</time>
      </trkpt>
      <trkpt lat="50.700946" lon="6.466482">
        <ele>302.950000</ele>
        <time>2009-09-20T09:38:29Z</time>
      </trkpt>
      <trkpt lat="50.701120" lon="6.466465">
        <ele>305.360000</ele>
        <time>2009-09-20T09:38:48Z</time>
      </trkpt>
      <trkpt lat="50.701287" lon="6.466429">
        <ele>306.800000</ele>
        <time>2009-09-20T09:39:06Z</time>
      </trkpt>
      <trkpt lat="50.701407" lon="6.466419">
        <ele>309.200000</ele>
        <time>2009-09-20T09:39:23Z</time>
      </trkpt>
      <trkpt lat="50.701586" lon="6.466277">
        <ele>309.680000</ele>
        <time>2009-09-20T09:39:39Z</time>
      </trkpt>
      <trkpt lat="50.701723" lon="6.466027">
        <ele>311.600000</ele>
        <time>2009-09-20T09:39:57Z</time>
      </trkpt>
      <trkpt lat="50.701797" lon="6.465874">
        <ele>314.010000</ele>
        <time>2009-09-20T09:40:12Z</time>
      </trkpt>
      <trkpt lat="50.701973" lon="6.465781">
        <ele>316.410000</ele>
        <time>2009-09-20T09:40:32Z</time>
      </trkpt>
      <trkpt lat="50.702130" lon="6.465714">
        <ele>319.300000</ele>
        <time>2009-09-20T09:40:50Z</time>
      </trkpt>
      <trkpt lat="50.702268" lon="6.465673">
        <ele>322.660000</ele>
        <time>2009-09-20T09:41:05Z</time>
      </trkpt>
      <trkpt lat="50.702406" lon="6.465553">
        <ele>325.060000</ele>
        <time>2009-09-20T09:41:24Z</time>
      </trkpt>
      <trkpt lat="50.702373" lon="6.465501">
        <ele>324.100000</ele>
        <time>2009-09-20T09:41:31Z</time>
      </trkpt>
      <trkpt lat="50.702428" lon="6.465299">
        <ele>324.580000</ele>
        <time>2009-09-20T09:41:46Z</time>
      </trkpt>
      <trkpt lat="50.702587" lon="6.465067">
        <ele>323.620000</ele>
        <time>2009-09-20T09:42:07Z</time>
      </trkpt>
      <trkpt lat="50.702705" lon="6.464846">
        <ele>323.620000</ele>
        <time>2009-09-20T09:42:25Z</time>
      </trkpt>
      <trkpt lat="50.702841" lon="6.464727">
        <ele>324.100000</ele>
        <time>2009-09-20T09:42:44Z</time>
      </trkpt>
      <trkpt lat="50.702932" lon="6.464579">
        <ele>325.060000</ele>
        <time>2009-09-20T09:43:01Z</time>
      </trkpt>
      <trkpt lat="50.703015" lon="6.464343">
        <ele>322.180000</ele>
        <time>2009-09-20T09:43:19Z</time>
      </trkpt>
      <trkpt lat="50.702951" lon="6.464120">
        <ele>318.810000</ele>
        <time>2009-09-20T09:43:34Z</time>
      </trkpt>
      <trkpt lat="50.703008" lon="6.463975">
        <ele>316.410000</ele>
        <time>2009-09-20T09:43:52Z</time>
      </trkpt>
      <trkpt lat="50.702998" lon="6.463799">
        <ele>313.050000</ele>
        <time>2009-09-20T09:44:07Z</time>
      </trkpt>
      <trkpt lat="50.703021" lon="6.463662">
        <ele>310.160000</ele>
        <time>2009-09-20T09:44:22Z</time>
      </trkpt>
      <trkpt lat="50.702976" lon="6.463456">
        <ele>307.280000</ele>
        <time>2009-09-20T09:44:38Z</time>
      </trkpt>
      <trkpt lat="50.702958" lon="6.463315">
        <ele>303.910000</ele>
        <time>2009-09-20T09:44:51Z</time>
      </trkpt>
      <trkpt lat="50.702845" lon="6.463193">
        <ele>301.030000</ele>
        <time>2009-09-20T09:45:05Z</time>
      </trkpt>
      <trkpt lat="50.702776" lon="6.462996">
        <ele>297.670000</ele>
        <time>2009-09-20T09:45:20Z</time>
      </trkpt>
      <trkpt lat="50.702693" lon="6.462879">
        <ele>294.300000</ele>
        <time>2009-09-20T09:45:35Z</time>
      </trkpt>
      <trkpt lat="50.702703" lon="6.462763">
        <ele>292.860000</ele>
        <time>2009-09-20T09:45:51Z</time>
      </trkpt>
      <trkpt lat="50.702680" lon="6.462640">
        <ele>289.490000</ele>
        <time>2009-09-20T09:46:03Z</time>
      </trkpt>
      <trkpt lat="50.702673" lon="6.462576">
        <ele>286.610000</ele>
        <time>2009-09-20T09:46:16Z</time>
      </trkpt>
      <trkpt lat="50.702619" lon="6.462535">
        <ele>283.250000</ele>
        <time>2009-09-20T09:46:27Z</time>
      </trkpt>
      <trkpt lat="50.702635" lon="6.462320">
        <ele>281.800000</ele>
        <time>2009-09-20T09:46:46Z</time>
      </trkpt>
      <trkpt lat="50.702680" lon="6.462222">
        <ele>279.880000</ele>
        <time>2009-09-20T09:46:55Z</time>
      </trkpt>
      <trkpt lat="50.702871" lon="6.462091">
        <ele>282.770000</ele>
        <time>2009-09-20T09:47:13Z</time>
      </trkpt>
      <trkpt lat="50.703007" lon="6.461971">
        <ele>284.210000</ele>
        <time>2009-09-20T09:47:33Z</time>
      </trkpt>
      <trkpt lat="50.703032" lon="6.461854">
        <ele>284.210000</ele>
        <time>2009-09-20T09:47:40Z</time>
      </trkpt>
      <trkpt lat="50.703129" lon="6.461652">
        <ele>283.730000</ele>
        <time>2009-09-20T09:47:58Z</time>
      </trkpt>
      <trkpt lat="50.703307" lon="6.461546">
        <ele>283.730000</ele>
        <time>2009-09-20T09:48:18Z</time>
      </trkpt>
      <trkpt lat="50.703449" lon="6.461523">
        <ele>284.210000</ele>
        <time>2009-09-20T09:48:37Z</time>
      </trkpt>
      <trkpt lat="50.703629" lon="6.461360">
        <ele>283.730000</ele>
        <time>2009-09-20T09:48:59Z</time>
      </trkpt>
      <trkpt lat="50.703734" lon="6.461257">
        <ele>286.610000</ele>
        <time>2009-09-20T09:49:16Z</time>
      </trkpt>
      <trkpt lat="50.703897" lon="6.461108">
        <ele>289.970000</ele>
        <time>2009-09-20T09:49:32Z</time>
      </trkpt>
      <trkpt lat="50.703863" lon="6.460814">
        <ele>289.970000</ele>
        <time>2009-09-20T09:49:52Z</time>
      </trkpt>
      <trkpt lat="50.703842" lon="6.460566">
        <ele>289.970000</ele>
        <time>2009-09-20T09:50:08Z</time>
      </trkpt>
      <trkpt lat="50.703813" lon="6.460434">
        <ele>289.010000</ele>
        <time>2009-09-20T09:50:24Z</time>
      </trkpt>
      <trkpt lat="50.703857" lon="6.460279">
        <ele>289.490000</ele>
        <time>2009-09-20T09:50:35Z</time>
      </trkpt>
      <trkpt lat="50.703675" lon="6.459918">
        <ele>289.490000</ele>
        <time>2009-09-20T09:50:53Z</time>
      </trkpt>
      <trkpt lat="50.703493" lon="6.459675">
        <ele>288.530000</ele>
        <time>2009-09-20T09:51:11Z</time>
      </trkpt>
      <trkpt lat="50.703387" lon="6.459429">
        <ele>289.010000</ele>
        <time>2009-09-20T09:51:31Z</time>
      </trkpt>
      <trkpt lat="50.703348" lon="6.459160">
        <ele>289.010000</ele>
        <time>2009-09-20T09:51:49Z</time>
      </trkpt>
      <trkpt lat="50.703348" lon="6.458950">
        <ele>288.530000</ele>
        <time>2009-09-20T09:52:00Z</time>
      </trkpt>
      <trkpt lat="50.703410" lon="6.458542">
        <ele>290.940000</ele>
        <time>2009-09-20T09:52:21Z</time>
      </trkpt>
      <trkpt lat="50.703275" lon="6.458282">
        <ele>288.050000</ele>
        <time>2009-09-20T09:52:41Z</time>
      </trkpt>
      <trkpt lat="50.703085" lon="6.457820">
        <ele>287.570000</ele>
        <time>2009-09-20T09:52:59Z</time>
      </trkpt>
      <trkpt lat="50.703056" lon="6.457669">
        <ele>287.570000</ele>
        <time>2009-09-20T09:53:08Z</time>
      </trkpt>
      <trkpt lat="50.703077" lon="6.457460">
        <ele>286.610000</ele>
        <time>2009-09-20T09:53:23Z</time>
      </trkpt>
      <trkpt lat="50.703060" lon="6.457198">
        <ele>286.610000</ele>
        <time>2009-09-20T09:53:36Z</time>
      </trkpt>
      <trkpt lat="50.703079" lon="6.457141">
        <ele>286.610000</ele>
        <time>2009-09-20T09:53:40Z</time>
      </trkpt>
      <trkpt lat="50.703137" lon="6.456933">
        <ele>286.610000</ele>
        <time>2009-09-20T09:53:49Z</time>
      </trkpt>
      <trkpt lat="50.703183" lon="6.456886">
        <ele>286.130000</ele>
        <time>2009-09-20T09:53:54Z</time>
      </trkpt>
      <trkpt lat="50.703242" lon="6.456606">
        <ele>285.650000</ele>
        <time>2009-09-20T09:54:06Z</time>
      </trkpt>
      <trkpt lat="50.703218" lon="6.456399">
        <ele>285.170000</ele>
        <time>2009-09-20T09:54:27Z</time>
      </trkpt>
      <trkpt lat="50.703153" lon="6.456347">
        <ele>285.170000</ele>
        <time>2009-09-20T09:54:32Z</time>
      </trkpt>
      <trkpt lat="50.702960" lon="6.456048">
        <ele>284.690000</ele>
        <time>2009-09-20T09:54:49Z</time>
      </trkpt>
      <trkpt lat="50.702867" lon="6.455816">
        <ele>283.730000</ele>
        <time>2009-09-20T09:55:00Z</time>
      </trkpt>
      <trkpt lat="50.702825" lon="6.455656">
        <ele>283.250000</ele>
        <time>2009-09-20T09:55:10Z</time>
      </trkpt>
      <trkpt lat="50.702742" lon="6.455297">
        <ele>281.800000</ele>
        <time>2009-09-20T09:55:30Z</time>
      </trkpt>
      <trkpt lat="50.702624" lon="6.455039">
        <ele>281.320000</ele>
        <time>2009-09-20T09:55:43Z</time>
      </trkpt>
      <trkpt lat="50.702603" lon="6.454842">
        <ele>280.840000</ele>
        <time>2009-09-20T09:55:56Z</time>
      </trkpt>
      <trkpt lat="50.702603" lon="6.454825">
        <ele>280.840000</ele>
        <time>2009-09-20T09:55:57Z</time>
      </trkpt>
      <trkpt lat="50.702607" lon="6.454355">
        <ele>279.400000</ele>
        <time>2009-09-20T09:56:21Z</time>
      </trkpt>
      <trkpt lat="50.702521" lon="6.454133">
        <ele>277.960000</ele>
        <time>2009-09-20T09:56:38Z</time>
      </trkpt>
      <trkpt lat="50.702380" lon="6.453631">
        <ele>277.000000</ele>
        <time>2009-09-20T09:57:02Z</time>
      </trkpt>
      <trkpt lat="50.702388" lon="6.453278">
        <ele>275.560000</ele>
        <time>2009-09-20T09:57:23Z</time>
      </trkpt>
      <trkpt lat="50.702339" lon="6.452905">
        <ele>274.590000</ele>
        <time>2009-09-20T09:57:43Z</time>
      </trkpt>
      <trkpt lat="50.702366" lon="6.452780">
        <ele>274.110000</ele>
        <time>2009-09-20T09:57:50Z</time>
      </trkpt>
      <trkpt lat="50.702352" lon="6.452712">
        <ele>273.630000</ele>
        <time>2009-09-20T09:57:53Z</time>
      </trkpt>
      <trkpt lat="50.702330" lon="6.452433">
        <ele>272.670000</ele>
        <time>2009-09-20T09:58:08Z</time>
      </trkpt>
      <trkpt lat="50.702337" lon="6.452083">
        <ele>271.230000</ele>
        <time>2009-09-20T09:58:25Z</time>
      </trkpt>
      <trkpt lat="50.702370" lon="6.451817">
        <ele>270.270000</ele>
        <time>2009-09-20T09:58:39Z</time>
      </trkpt>
      <trkpt lat="50.702377" lon="6.451662">
        <ele>269.790000</ele>
        <time>2009-09-20T09:58:47Z</time>
      </trkpt>
      <trkpt lat="50.702391" lon="6.451395">
        <ele>269.790000</ele>
        <time>2009-09-20T09:58:59Z</time>
      </trkpt>
      <trkpt lat="50.702384" lon="6.451380">
        <ele>269.790000</ele>
        <time>2009-09-20T09:59:00Z</time>
      </trkpt>
      <trkpt lat="50.702406" lon="6.451223">
        <ele>268.830000</ele>
        <time>2009-09-20T09:59:10Z</time>
      </trkpt>
      <trkpt lat="50.702406" lon="6.451011">
        <ele>268.350000</ele>
        <time>2009-09-20T09:59:23Z</time>
      </trkpt>
      <trkpt lat="50.702454" lon="6.450806">
        <ele>267.380000</ele>
        <time>2009-09-20T09:59:32Z</time>
      </trkpt>
      <trkpt lat="50.702485" lon="6.450682">
        <ele>266.900000</ele>
        <time>2009-09-20T09:59:37Z</time>
      </trkpt>
      <trkpt lat="50.702527" lon="6.450567">
        <ele>266.900000</ele>
        <time>2009-09-20T09:59:45Z</time>
      </trkpt>
      <trkpt lat="50.702579" lon="6.450396">
        <ele>266.420000</ele>
        <time>2009-09-20T09:59:56Z</time>
      </trkpt>
      <trkpt lat="50.702593" lon="6.450332">
        <ele>265.940000</ele>
        <time>2009-09-20T09:59:59Z</time>
      </trkpt>
      <trkpt lat="50.702655" lon="6.450147">
        <ele>265.460000</ele>
        <time>2009-09-20T10:00:09Z</time>
      </trkpt>
      <trkpt lat="50.702664" lon="6.450119">
        <ele>264.980000</ele>
        <time>2009-09-20T10:00:11Z</time>
      </trkpt>
      <trkpt lat="50.702678" lon="6.450043">
        <ele>265.460000</ele>
        <time>2009-09-20T10:00:15Z</time>
      </trkpt>
      <trkpt lat="50.702704" lon="6.449876">
        <ele>264.500000</ele>
        <time>2009-09-20T10:00:23Z</time>
      </trkpt>
      <trkpt lat="50.702727" lon="6.449814">
        <ele>264.020000</ele>
        <time>2009-09-20T10:00:27Z</time>
      </trkpt>
      <trkpt lat="50.702782" lon="6.449511">
        <ele>263.540000</ele>
        <time>2009-09-20T10:00:42Z</time>
      </trkpt>
      <trkpt lat="50.702896" lon="6.449360">
        <ele>263.060000</ele>
        <time>2009-09-20T10:00:52Z</time>
      </trkpt>
      <trkpt lat="50.702942" lon="6.449246">
        <ele>262.580000</ele>
        <time>2009-09-20T10:00:59Z</time>
      </trkpt>
      <trkpt lat="50.702946" lon="6.449159">
        <ele>262.100000</ele>
        <time>2009-09-20T10:01:04Z</time>
      </trkpt>
      <trkpt lat="50.703068" lon="6.449076">
        <ele>261.140000</ele>
        <time>2009-09-20T10:01:16Z</time>
      </trkpt>
      <trkpt lat="50.703108" lon="6.449028">
        <ele>260.650000</ele>
        <time>2009-09-20T10:01:29Z</time>
      </trkpt>
      <trkpt lat="50.703120" lon="6.449086">
        <ele>260.650000</ele>
        <time>2009-09-20T10:01:47Z</time>
      </trkpt>
      <trkpt lat="50.703163" lon="6.449207">
        <ele>260.650000</ele>
        <time>2009-09-20T10:01:59Z</time>
      </trkpt>
      <trkpt lat="50.703166" lon="6.449310">
        <ele>260.170000</ele>
        <time>2009-09-20T10:02:03Z</time>
      </trkpt>
      <trkpt lat="50.703199" lon="6.449384">
        <ele>260.170000</ele>
        <time>2009-09-20T10:02:08Z</time>
      </trkpt>
      <trkpt lat="50.703259" lon="6.449495">
        <ele>260.170000</ele>
        <time>2009-09-20T10:02:15Z</time>
      </trkpt>
      <trkpt lat="50.703376" lon="6.449667">
        <ele>259.690000</ele>
        <time>2009-09-20T10:02:26Z</time>
      </trkpt>
      <trkpt lat="50.703473" lon="6.449804">
        <ele>258.730000</ele>
        <time>2009-09-20T10:02:45Z</time>
      </trkpt>
      <trkpt lat="50.703593" lon="6.449819">
        <ele>258.730000</ele>
        <time>2009-09-20T10:02:51Z</time>
      </trkpt>
      <trkpt lat="50.703780" lon="6.449685">
        <ele>258.730000</ele>
        <time>2009-09-20T10:03:06Z</time>
      </trkpt>
      <trkpt lat="50.703838" lon="6.449648">
        <ele>258.730000</ele>
        <time>2009-09-20T10:03:10Z</time>
      </trkpt>
      <trkpt lat="50.703954" lon="6.449551">
        <ele>259.210000</ele>
        <time>2009-09-20T10:03:21Z</time>
      </trkpt>
      <trkpt lat="50.704087" lon="6.449394">
        <ele>259.210000</ele>
        <time>2009-09-20T10:03:34Z</time>
      </trkpt>
      <trkpt lat="50.704131" lon="6.449317">
        <ele>259.210000</ele>
        <time>2009-09-20T10:03:38Z</time>
      </trkpt>
      <trkpt lat="50.704178" lon="6.449103">
        <ele>259.210000</ele>
        <time>2009-09-20T10:03:48Z</time>
      </trkpt>
      <trkpt lat="50.704244" lon="6.448979">
        <ele>259.210000</ele>
        <time>2009-09-20T10:03:54Z</time>
      </trkpt>
      <trkpt lat="50.704399" lon="6.448775">
        <ele>259.210000</ele>
        <time>2009-09-20T10:04:08Z</time>
      </trkpt>
      <trkpt lat="50.704460" lon="6.448739">
        <ele>259.210000</ele>
        <time>2009-09-20T10:04:13Z</time>
      </trkpt>
      <trkpt lat="50.704655" lon="6.448690">
        <ele>259.210000</ele>
        <time>2009-09-20T10:04:27Z</time>
      </trkpt>
      <trkpt lat="50.704715" lon="6.448684">
        <ele>259.690000</ele>
        <time>2009-09-20T10:04:29Z</time>
      </trkpt>
      <trkpt lat="50.704739" lon="6.448679">
        <ele>259.210000</ele>
        <time>2009-09-20T10:04:31Z</time>
      </trkpt>
      <trkpt lat="50.704850" lon="6.448486">
        <ele>259.210000</ele>
        <time>2009-09-20T10:04:42Z</time>
      </trkpt>
      <trkpt lat="50.705018" lon="6.448395">
        <ele>259.210000</ele>
        <time>2009-09-20T10:04:53Z</time>
      </trkpt>
      <trkpt lat="50.705036" lon="6.448382">
        <ele>259.690000</ele>
        <time>2009-09-20T10:04:55Z</time>
      </trkpt>
      <trkpt lat="50.705110" lon="6.448285">
        <ele>259.210000</ele>
        <time>2009-09-20T10:05:05Z</time>
      </trkpt>
      <trkpt lat="50.705127" lon="6.448260">
        <ele>259.210000</ele>
        <time>2009-09-20T10:05:12Z</time>
      </trkpt>
      <trkpt lat="50.705177" lon="6.448037">
        <ele>259.210000</ele>
        <time>2009-09-20T10:05:25Z</time>
      </trkpt>
      <trkpt lat="50.705222" lon="6.448031">
        <ele>259.210000</ele>
        <time>2009-09-20T10:05:28Z</time>
      </trkpt>
      <trkpt lat="50.705300" lon="6.447893">
        <ele>259.210000</ele>
        <time>2009-09-20T10:05:36Z</time>
      </trkpt>
      <trkpt lat="50.705344" lon="6.447778">
        <ele>259.210000</ele>
        <time>2009-09-20T10:05:43Z</time>
      </trkpt>
      <trkpt lat="50.705394" lon="6.447757">
        <ele>259.210000</ele>
        <time>2009-09-20T10:05:46Z</time>
      </trkpt>
      <trkpt lat="50.705405" lon="6.447726">
        <ele>259.690000</ele>
        <time>2009-09-20T10:05:48Z</time>
      </trkpt>
      <trkpt lat="50.705490" lon="6.447611">
        <ele>259.690000</ele>
        <time>2009-09-20T10:05:56Z</time>
      </trkpt>
      <trkpt lat="50.705533" lon="6.447333">
        <ele>259.690000</ele>
        <time>2009-09-20T10:06:08Z</time>
      </trkpt>
      <trkpt lat="50.705590" lon="6.447223">
        <ele>259.690000</ele>
        <time>2009-09-20T10:06:14Z</time>
      </trkpt>
      <trkpt lat="50.705654" lon="6.447117">
        <ele>259.690000</ele>
        <time>2009-09-20T10:06:21Z</time>
      </trkpt>
      <trkpt lat="50.705640" lon="6.447077">
        <ele>259.690000</ele>
        <time>2009-09-20T10:06:23Z</time>
      </trkpt>
      <trkpt lat="50.705699" lon="6.446891">
        <ele>259.690000</ele>
        <time>2009-09-20T10:06:33Z</time>
      </trkpt>
      <trkpt lat="50.705764" lon="6.446798">
        <ele>260.170000</ele>
        <time>2009-09-20T10:06:38Z</time>
      </trkpt>
      <trkpt lat="50.705796" lon="6.446709">
        <ele>259.690000</ele>
        <time>2009-09-20T10:06:42Z</time>
      </trkpt>
      <trkpt lat="50.705857" lon="6.446596">
        <ele>260.170000</ele>
        <time>2009-09-20T10:06:48Z</time>
      </trkpt>
      <trkpt lat="50.705878" lon="6.446492">
        <ele>260.170000</ele>
        <time>2009-09-20T10:06:53Z</time>
      </trkpt>
      <trkpt lat="50.705897" lon="6.446412">
        <ele>260.170000</ele>
        <time>2009-09-20T10:06:57Z</time>
      </trkpt>
      <trkpt lat="50.705957" lon="6.446287">
        <ele>260.170000</ele>
        <time>2009-09-20T10:07:05Z</time>
      </trkpt>
      <trkpt lat="50.705959" lon="6.446250">
        <ele>260.170000</ele>
        <time>2009-09-20T10:07:07Z</time>
      </trkpt>
      <trkpt lat="50.706046" lon="6.446040">
        <ele>260.170000</ele>
        <time>2009-09-20T10:07:18Z</time>
      </trkpt>
      <trkpt lat="50.706140" lon="6.445910">
        <ele>260.170000</ele>
        <time>2009-09-20T10:07:27Z</time>
      </trkpt>
      <trkpt lat="50.706250" lon="6.445817">
        <ele>260.650000</ele>
        <time>2009-09-20T10:07:38Z</time>
      </trkpt>
      <trkpt lat="50.706282" lon="6.445788">
        <ele>260.650000</ele>
        <time>2009-09-20T10:07:53Z</time>
      </trkpt>
      <trkpt lat="50.706286" lon="6.445778">
        <ele>260.170000</ele>
        <time>2009-09-20T10:07:55Z</time>
      </trkpt>
      <trkpt lat="50.706390" lon="6.445693">
        <ele>259.690000</ele>
        <time>2009-09-20T10:08:16Z</time>
      </trkpt>
      <trkpt lat="50.706448" lon="6.445733">
        <ele>259.690000</ele>
        <time>2009-09-20T10:09:14Z</time>
      </trkpt>
      <trkpt lat="50.706666" lon="6.445735">
        <ele>260.170000</ele>
        <time>2009-09-20T10:09:28Z</time>
      </trkpt>
      <trkpt lat="50.706787" lon="6.445745">
        <ele>260.170000</ele>
        <time>2009-09-20T10:09:38Z</time>
      </trkpt>
      <trkpt lat="50.706797" lon="6.445745">
        <ele>260.170000</ele>
        <time>2009-09-20T10:09:39Z</time>
      </trkpt>
      <trkpt lat="50.706885" lon="6.445741">
        <ele>260.170000</ele>
        <time>2009-09-20T10:09:44Z</time>
      </trkpt>
      <trkpt lat="50.706932" lon="6.445771">
        <ele>260.170000</ele>
        <time>2009-09-20T10:09:47Z</time>
      </trkpt>
      <trkpt lat="50.707025" lon="6.445859">
        <ele>260.170000</ele>
        <time>2009-09-20T10:09:57Z</time>
      </trkpt>
      <trkpt lat="50.707232" lon="6.445973">
        <ele>260.650000</ele>
        <time>2009-09-20T10:10:14Z</time>
      </trkpt>
      <trkpt lat="50.707401" lon="6.445990">
        <ele>260.650000</ele>
        <time>2009-09-20T10:10:24Z</time>
      </trkpt>
      <trkpt lat="50.707460" lon="6.446039">
        <ele>260.650000</ele>
        <time>2009-09-20T10:10:30Z</time>
      </trkpt>
      <trkpt lat="50.707602" lon="6.446052">
        <ele>260.650000</ele>
        <time>2009-09-20T10:10:43Z</time>
      </trkpt>
      <trkpt lat="50.707758" lon="6.446165">
        <ele>260.650000</ele>
        <time>2009-09-20T10:10:57Z</time>
      </trkpt>
      <trkpt lat="50.707968" lon="6.446449">
        <ele>261.140000</ele>
        <time>2009-09-20T10:11:16Z</time>
      </trkpt>
      <trkpt lat="50.708037" lon="6.446467">
        <ele>261.140000</ele>
        <time>2009-09-20T10:11:20Z</time>
      </trkpt>
      <trkpt lat="50.708119" lon="6.446734">
        <ele>261.140000</ele>
        <time>2009-09-20T10:11:33Z</time>
      </trkpt>
      <trkpt lat="50.708129" lon="6.446782">
        <ele>261.140000</ele>
        <time>2009-09-20T10:11:35Z</time>
      </trkpt>
      <trkpt lat="50.708211" lon="6.446929">
        <ele>261.620000</ele>
        <time>2009-09-20T10:11:47Z</time>
      </trkpt>
      <trkpt lat="50.708392" lon="6.446915">
        <ele>261.620000</ele>
        <time>2009-09-20T10:11:59Z</time>
      </trkpt>
      <trkpt lat="50.708530" lon="6.446840">
        <ele>261.620000</ele>
        <time>2009-09-20T10:12:10Z</time>
      </trkpt>
      <trkpt lat="50.708639" lon="6.446773">
        <ele>261.620000</ele>
        <time>2009-09-20T10:12:17Z</time>
      </trkpt>
      <trkpt lat="50.708666" lon="6.446736">
        <ele>261.620000</ele>
        <time>2009-09-20T10:12:21Z</time>
      </trkpt>
      <trkpt lat="50.708809" lon="6.446773">
        <ele>261.620000</ele>
        <time>2009-09-20T10:12:32Z</time>
      </trkpt>
      <trkpt lat="50.708895" lon="6.446833">
        <ele>262.100000</ele>
        <time>2009-09-20T10:12:40Z</time>
      </trkpt>
      <trkpt lat="50.708982" lon="6.446938">
        <ele>261.620000</ele>
        <time>2009-09-20T10:12:46Z</time>
      </trkpt>
      <trkpt lat="50.709129" lon="6.447162">
        <ele>262.100000</ele>
        <time>2009-09-20T10:13:01Z</time>
      </trkpt>
      <trkpt lat="50.709141" lon="6.447181">
        <ele>262.100000</ele>
        <time>2009-09-20T10:13:02Z</time>
      </trkpt>
      <trkpt lat="50.709185" lon="6.447193">
        <ele>262.100000</ele>
        <time>2009-09-20T10:13:05Z</time>
      </trkpt>
      <trkpt lat="50.709281" lon="6.447394">
        <ele>262.100000</ele>
        <time>2009-09-20T10:13:18Z</time>
      </trkpt>
      <trkpt lat="50.709419" lon="6.447555">
        <ele>262.580000</ele>
        <time>2009-09-20T10:13:29Z</time>
      </trkpt>
      <trkpt lat="50.709427" lon="6.447619">
        <ele>262.580000</ele>
        <time>2009-09-20T10:13:31Z</time>
      </trkpt>
      <trkpt lat="50.709512" lon="6.447774">
        <ele>262.580000</ele>
        <time>2009-09-20T10:13:42Z</time>
      </trkpt>
      <trkpt lat="50.709542" lon="6.447820">
        <ele>262.580000</ele>
        <time>2009-09-20T10:13:45Z</time>
      </trkpt>
      <trkpt lat="50.709559" lon="6.447907">
        <ele>262.580000</ele>
        <time>2009-09-20T10:13:50Z</time>
      </trkpt>
      <trkpt lat="50.709592" lon="6.448136">
        <ele>263.060000</ele>
        <time>2009-09-20T10:14:02Z</time>
      </trkpt>
      <trkpt lat="50.709620" lon="6.448408">
        <ele>263.060000</ele>
        <time>2009-09-20T10:14:15Z</time>
      </trkpt>
      <trkpt lat="50.709628" lon="6.448535">
        <ele>263.060000</ele>
        <time>2009-09-20T10:14:22Z</time>
      </trkpt>
      <trkpt lat="50.709665" lon="6.448696">
        <ele>263.540000</ele>
        <time>2009-09-20T10:14:29Z</time>
      </trkpt>
      <trkpt lat="50.709745" lon="6.449020">
        <ele>263.060000</ele>
        <time>2009-09-20T10:14:40Z</time>
      </trkpt>
      <trkpt lat="50.709772" lon="6.449093">
        <ele>263.060000</ele>
        <time>2009-09-20T10:14:43Z</time>
      </trkpt>
      <trkpt lat="50.709856" lon="6.449170">
        <ele>263.060000</ele>
        <time>2009-09-20T10:14:50Z</time>
      </trkpt>
      <trkpt lat="50.709967" lon="6.449208">
        <ele>263.540000</ele>
        <time>2009-09-20T10:15:03Z</time>
      </trkpt>
      <trkpt lat="50.709955" lon="6.449173">
        <ele>263.540000</ele>
        <time>2009-09-20T10:15:05Z</time>
      </trkpt>
      <trkpt lat="50.710005" lon="6.449139">
        <ele>263.540000</ele>
        <time>2009-09-20T10:15:09Z</time>
      </trkpt>
      <trkpt lat="50.710112" lon="6.449025">
        <ele>263.060000</ele>
        <time>2009-09-20T10:15:21Z</time>
      </trkpt>
      <trkpt lat="50.710241" lon="6.448865">
        <ele>263.540000</ele>
        <time>2009-09-20T10:15:32Z</time>
      </trkpt>
      <trkpt lat="50.710351" lon="6.448736">
        <ele>263.060000</ele>
        <time>2009-09-20T10:15:50Z</time>
      </trkpt>
      <trkpt lat="50.710369" lon="6.448632">
        <ele>263.540000</ele>
        <time>2009-09-20T10:16:12Z</time>
      </trkpt>
      <trkpt lat="50.710395" lon="6.448574">
        <ele>263.540000</ele>
        <time>2009-09-20T10:16:16Z</time>
      </trkpt>
      <trkpt lat="50.710474" lon="6.448476">
        <ele>263.540000</ele>
        <time>2009-09-20T10:16:23Z</time>
      </trkpt>
      <trkpt lat="50.710579" lon="6.448209">
        <ele>263.540000</ele>
        <time>2009-09-20T10:16:37Z</time>
      </trkpt>
      <trkpt lat="50.710601" lon="6.448164">
        <ele>263.540000</ele>
        <time>2009-09-20T10:16:40Z</time>
      </trkpt>
      <trkpt lat="50.710639" lon="6.448069">
        <ele>263.540000</ele>
        <time>2009-09-20T10:16:45Z</time>
      </trkpt>
      <trkpt lat="50.710652" lon="6.448017">
        <ele>264.020000</ele>
        <time>2009-09-20T10:16:48Z</time>
      </trkpt>
      <trkpt lat="50.710691" lon="6.447901">
        <ele>263.540000</ele>
        <time>2009-09-20T10:16:54Z</time>
      </trkpt>
      <trkpt lat="50.710741" lon="6.447850">
        <ele>264.020000</ele>
        <time>2009-09-20T10:17:01Z</time>
      </trkpt>
      <trkpt lat="50.710905" lon="6.447904">
        <ele>264.020000</ele>
        <time>2009-09-20T10:17:10Z</time>
      </trkpt>
      <trkpt lat="50.710941" lon="6.447960">
        <ele>264.500000</ele>
        <time>2009-09-20T10:17:14Z</time>
      </trkpt>
      <trkpt lat="50.710943" lon="6.447937">
        <ele>264.500000</ele>
        <time>2009-09-20T10:17:16Z</time>
      </trkpt>
      <trkpt lat="50.710967" lon="6.447788">
        <ele>264.020000</ele>
        <time>2009-09-20T10:17:23Z</time>
      </trkpt>
      <trkpt lat="50.710976" lon="6.447540">
        <ele>264.020000</ele>
        <time>2009-09-20T10:17:36Z</time>
      </trkpt>
      <trkpt lat="50.710983" lon="6.447498">
        <ele>264.020000</ele>
        <time>2009-09-20T10:17:39Z</time>
      </trkpt>
      <trkpt lat="50.711008" lon="6.447456">
        <ele>264.020000</ele>
        <time>2009-09-20T10:17:42Z</time>
      </trkpt>
      <trkpt lat="50.711014" lon="6.447330">
        <ele>264.500000</ele>
        <time>2009-09-20T10:17:53Z</time>
      </trkpt>
      <trkpt lat="50.711029" lon="6.447326">
        <ele>264.500000</ele>
        <time>2009-09-20T10:17:57Z</time>
      </trkpt>
      <trkpt lat="50.711068" lon="6.447298">
        <ele>264.500000</ele>
        <time>2009-09-20T10:18:02Z</time>
      </trkpt>
      <trkpt lat="50.711027" lon="6.447234">
        <ele>265.460000</ele>
        <time>2009-09-20T10:18:17Z</time>
      </trkpt>
      <trkpt lat="50.711005" lon="6.447179">
        <ele>265.940000</ele>
        <time>2009-09-20T10:19:24Z</time>
      </trkpt>
      <trkpt lat="50.710995" lon="6.447316">
        <ele>264.500000</ele>
        <time>2009-09-20T10:20:05Z</time>
      </trkpt>
      <trkpt lat="50.710952" lon="6.447485">
        <ele>264.020000</ele>
        <time>2009-09-20T10:20:12Z</time>
      </trkpt>
      <trkpt lat="50.710934" lon="6.447693">
        <ele>264.020000</ele>
        <time>2009-09-20T10:20:23Z</time>
      </trkpt>
      <trkpt lat="50.710863" lon="6.447949">
        <ele>264.500000</ele>
        <time>2009-09-20T10:20:35Z</time>
      </trkpt>
      <trkpt lat="50.710863" lon="6.448074">
        <ele>264.500000</ele>
        <time>2009-09-20T10:20:40Z</time>
      </trkpt>
      <trkpt lat="50.710876" lon="6.448255">
        <ele>264.500000</ele>
        <time>2009-09-20T10:20:49Z</time>
      </trkpt>
      <trkpt lat="50.710880" lon="6.448555">
        <ele>264.980000</ele>
        <time>2009-09-20T10:21:04Z</time>
      </trkpt>
      <trkpt lat="50.710912" lon="6.448776">
        <ele>264.980000</ele>
        <time>2009-09-20T10:21:17Z</time>
      </trkpt>
      <trkpt lat="50.710943" lon="6.449007">
        <ele>265.460000</ele>
        <time>2009-09-20T10:21:28Z</time>
      </trkpt>
      <trkpt lat="50.710949" lon="6.449262">
        <ele>265.940000</ele>
        <time>2009-09-20T10:21:40Z</time>
      </trkpt>
      <trkpt lat="50.710926" lon="6.449566">
        <ele>265.940000</ele>
        <time>2009-09-20T10:21:53Z</time>
      </trkpt>
      <trkpt lat="50.710938" lon="6.449582">
        <ele>265.940000</ele>
        <time>2009-09-20T10:21:54Z</time>
      </trkpt>
      <trkpt lat="50.710917" lon="6.449799">
        <ele>266.420000</ele>
        <time>2009-09-20T10:22:05Z</time>
      </trkpt>
      <trkpt lat="50.710915" lon="6.449874">
        <ele>266.420000</ele>
        <time>2009-09-20T10:22:09Z</time>
      </trkpt>
      <trkpt lat="50.710910" lon="6.449937">
        <ele>266.420000</ele>
        <time>2009-09-20T10:22:12Z</time>
      </trkpt>
      <trkpt lat="50.710945" lon="6.450054">
        <ele>266.900000</ele>
        <time>2009-09-20T10:22:16Z</time>
      </trkpt>
      <trkpt lat="50.710942" lon="6.450157">
        <ele>266.900000</ele>
        <time>2009-09-20T10:22:21Z</time>
      </trkpt>
      <trkpt lat="50.710933" lon="6.450218">
        <ele>266.900000</ele>
        <time>2009-09-20T10:22:24Z</time>
      </trkpt>
      <trkpt lat="50.710946" lon="6.450449">
        <ele>267.380000</ele>
        <time>2009-09-20T10:22:36Z</time>
      </trkpt>
      <trkpt lat="50.710931" lon="6.450534">
        <ele>267.380000</ele>
        <time>2009-09-20T10:22:42Z</time>
      </trkpt>
      <trkpt lat="50.711002" lon="6.450755">
        <ele>267.860000</ele>
        <time>2009-09-20T10:22:54Z</time>
      </trkpt>
      <trkpt lat="50.710933" lon="6.450847">
        <ele>267.860000</ele>
        <time>2009-09-20T10:23:02Z</time>
      </trkpt>
      <trkpt lat="50.710800" lon="6.451000">
        <ele>268.350000</ele>
        <time>2009-09-20T10:23:12Z</time>
      </trkpt>
      <trkpt lat="50.710852" lon="6.451290">
        <ele>268.350000</ele>
        <time>2009-09-20T10:23:22Z</time>
      </trkpt>
      <trkpt lat="50.710846" lon="6.451303">
        <ele>268.350000</ele>
        <time>2009-09-20T10:23:23Z</time>
      </trkpt>
      <trkpt lat="50.710923" lon="6.451517">
        <ele>268.830000</ele>
        <time>2009-09-20T10:23:31Z</time>
      </trkpt>
      <trkpt lat="50.711007" lon="6.451733">
        <ele>268.830000</ele>
        <time>2009-09-20T10:23:40Z</time>
      </trkpt>
      <trkpt lat="50.711155" lon="6.451892">
        <ele>268.830000</ele>
        <time>2009-09-20T10:23:50Z</time>
      </trkpt>
      <trkpt lat="50.711295" lon="6.451863">
        <ele>269.310000</ele>
        <time>2009-09-20T10:24:03Z</time>
      </trkpt>
      <trkpt lat="50.711491" lon="6.451914">
        <ele>268.830000</ele>
        <time>2009-09-20T10:24:12Z</time>
      </trkpt>
      <trkpt lat="50.711447" lon="6.451777">
        <ele>268.350000</ele>
        <time>2009-09-20T10:24:19Z</time>
      </trkpt>
      <trkpt lat="50.711381" lon="6.451654">
        <ele>265.460000</ele>
        <time>2009-09-20T10:24:29Z</time>
      </trkpt>
      <trkpt lat="50.711349" lon="6.451502">
        <ele>263.540000</ele>
        <time>2009-09-20T10:24:37Z</time>
      </trkpt>
      <trkpt lat="50.711335" lon="6.451477">
        <ele>263.060000</ele>
        <time>2009-09-20T10:24:40Z</time>
      </trkpt>
      <trkpt lat="50.711360" lon="6.451448">
        <ele>262.580000</ele>
        <time>2009-09-20T10:24:42Z</time>
      </trkpt>
      <trkpt lat="50.711428" lon="6.451303">
        <ele>259.210000</ele>
        <time>2009-09-20T10:24:51Z</time>
      </trkpt>
      <trkpt lat="50.711459" lon="6.451272">
        <ele>258.730000</ele>
        <time>2009-09-20T10:24:54Z</time>
      </trkpt>
      <trkpt lat="50.711477" lon="6.451135">
        <ele>256.330000</ele>
        <time>2009-09-20T10:25:03Z</time>
      </trkpt>
      <trkpt lat="50.711503" lon="6.451074">
        <ele>255.370000</ele>
        <time>2009-09-20T10:25:07Z</time>
      </trkpt>
      <trkpt lat="50.711527" lon="6.451047">
        <ele>254.410000</ele>
        <time>2009-09-20T10:25:09Z</time>
      </trkpt>
      <trkpt lat="50.711565" lon="6.450972">
        <ele>253.440000</ele>
        <time>2009-09-20T10:25:14Z</time>
      </trkpt>
      <trkpt lat="50.711574" lon="6.450930">
        <ele>252.960000</ele>
        <time>2009-09-20T10:25:16Z</time>
      </trkpt>
      <trkpt lat="50.711599" lon="6.450750">
        <ele>250.560000</ele>
        <time>2009-09-20T10:25:25Z</time>
      </trkpt>
      <trkpt lat="50.711621" lon="6.450595">
        <ele>248.640000</ele>
        <time>2009-09-20T10:25:33Z</time>
      </trkpt>
      <trkpt lat="50.711646" lon="6.450500">
        <ele>247.200000</ele>
        <time>2009-09-20T10:25:39Z</time>
      </trkpt>
      <trkpt lat="50.711611" lon="6.450444">
        <ele>246.230000</ele>
        <time>2009-09-20T10:25:42Z</time>
      </trkpt>
      <trkpt lat="50.711666" lon="6.450215">
        <ele>243.830000</ele>
        <time>2009-09-20T10:25:53Z</time>
      </trkpt>
      <trkpt lat="50.711737" lon="6.450088">
        <ele>241.910000</ele>
        <time>2009-09-20T10:26:02Z</time>
      </trkpt>
      <trkpt lat="50.711762" lon="6.450028">
        <ele>239.990000</ele>
        <time>2009-09-20T10:26:09Z</time>
      </trkpt>
      <trkpt lat="50.711802" lon="6.449936">
        <ele>239.020000</ele>
        <time>2009-09-20T10:26:15Z</time>
      </trkpt>
      <trkpt lat="50.711878" lon="6.449733">
        <ele>236.140000</ele>
        <time>2009-09-20T10:26:28Z</time>
      </trkpt>
      <trkpt lat="50.711830" lon="6.449541">
        <ele>234.700000</ele>
        <time>2009-09-20T10:26:35Z</time>
      </trkpt>
      <trkpt lat="50.711909" lon="6.449444">
        <ele>232.780000</ele>
        <time>2009-09-20T10:26:43Z</time>
      </trkpt>
      <trkpt lat="50.711917" lon="6.449339">
        <ele>231.330000</ele>
        <time>2009-09-20T10:26:49Z</time>
      </trkpt>
      <trkpt lat="50.711938" lon="6.449202">
        <ele>229.410000</ele>
        <time>2009-09-20T10:26:57Z</time>
      </trkpt>
      <trkpt lat="50.711942" lon="6.449034">
        <ele>227.490000</ele>
        <time>2009-09-20T10:27:05Z</time>
      </trkpt>
      <trkpt lat="50.711994" lon="6.448840">
        <ele>225.090000</ele>
        <time>2009-09-20T10:27:16Z</time>
      </trkpt>
      <trkpt lat="50.711999" lon="6.448769">
        <ele>224.120000</ele>
        <time>2009-09-20T10:27:19Z</time>
      </trkpt>
      <trkpt lat="50.712013" lon="6.448743">
        <ele>223.640000</ele>
        <time>2009-09-20T10:27:22Z</time>
      </trkpt>
      <trkpt lat="50.712007" lon="6.448668">
        <ele>223.160000</ele>
        <time>2009-09-20T10:27:26Z</time>
      </trkpt>
      <trkpt lat="50.712122" lon="6.448577">
        <ele>221.240000</ele>
        <time>2009-09-20T10:27:34Z</time>
      </trkpt>
      <trkpt lat="50.712138" lon="6.448536">
        <ele>220.760000</ele>
        <time>2009-09-20T10:27:36Z</time>
      </trkpt>
      <trkpt lat="50.712091" lon="6.448451">
        <ele>219.800000</ele>
        <time>2009-09-20T10:27:39Z</time>
      </trkpt>
      <trkpt lat="50.712099" lon="6.448364">
        <ele>218.840000</ele>
        <time>2009-09-20T10:27:44Z</time>
      </trkpt>
      <trkpt lat="50.712055" lon="6.448138">
        <ele>216.430000</ele>
        <time>2009-09-20T10:27:58Z</time>
      </trkpt>
      <trkpt lat="50.712073" lon="6.448123">
        <ele>215.950000</ele>
        <time>2009-09-20T10:28:00Z</time>
      </trkpt>
      <trkpt lat="50.712054" lon="6.448053">
        <ele>214.990000</ele>
        <time>2009-09-20T10:28:03Z</time>
      </trkpt>
      <trkpt lat="50.712097" lon="6.448024">
        <ele>214.030000</ele>
        <time>2009-09-20T10:28:06Z</time>
      </trkpt>
      <trkpt lat="50.712177" lon="6.447887">
        <ele>211.630000</ele>
        <time>2009-09-20T10:28:19Z</time>
      </trkpt>
      <trkpt lat="50.712298" lon="6.447703">
        <ele>208.740000</ele>
        <time>2009-09-20T10:28:35Z</time>
      </trkpt>
      <trkpt lat="50.712348" lon="6.447629">
        <ele>206.820000</ele>
        <time>2009-09-20T10:28:43Z</time>
      </trkpt>
      <trkpt lat="50.712354" lon="6.447445">
        <ele>204.900000</ele>
        <time>2009-09-20T10:28:53Z</time>
      </trkpt>
      <trkpt lat="50.712472" lon="6.447191">
        <ele>201.530000</ele>
        <time>2009-09-20T10:29:09Z</time>
      </trkpt>
      <trkpt lat="50.712489" lon="6.447185">
        <ele>201.050000</ele>
        <time>2009-09-20T10:29:10Z</time>
      </trkpt>
      <trkpt lat="50.712521" lon="6.447159">
        <ele>200.090000</ele>
        <time>2009-09-20T10:29:15Z</time>
      </trkpt>
      <trkpt lat="50.712538" lon="6.446976">
        <ele>197.690000</ele>
        <time>2009-09-20T10:29:28Z</time>
      </trkpt>
      <trkpt lat="50.712679" lon="6.446818">
        <ele>194.800000</ele>
        <time>2009-09-20T10:29:40Z</time>
      </trkpt>
      <trkpt lat="50.712732" lon="6.446618">
        <ele>193.360000</ele>
        <time>2009-09-20T10:29:51Z</time>
      </trkpt>
      <trkpt lat="50.712838" lon="6.446551">
        <ele>190.480000</ele>
        <time>2009-09-20T10:30:05Z</time>
      </trkpt>
      <trkpt lat="50.712939" lon="6.446442">
        <ele>187.110000</ele>
        <time>2009-09-20T10:30:16Z</time>
      </trkpt>
      <trkpt lat="50.712991" lon="6.446419">
        <ele>186.150000</ele>
        <time>2009-09-20T10:30:21Z</time>
      </trkpt>
      <trkpt lat="50.713110" lon="6.446281">
        <ele>182.790000</ele>
        <time>2009-09-20T10:30:34Z</time>
      </trkpt>
      <trkpt lat="50.713125" lon="6.446178">
        <ele>180.870000</ele>
        <time>2009-09-20T10:30:42Z</time>
      </trkpt>
      <trkpt lat="50.713107" lon="6.445984">
        <ele>177.020000</ele>
        <time>2009-09-20T10:30:55Z</time>
      </trkpt>
      <trkpt lat="50.713176" lon="6.445999">
        <ele>176.540000</ele>
        <time>2009-09-20T10:31:09Z</time>
      </trkpt>
      <trkpt lat="50.713249" lon="6.446082">
        <ele>176.540000</ele>
        <time>2009-09-20T10:31:18Z</time>
      </trkpt>
      <trkpt lat="50.713338" lon="6.446114">
        <ele>176.540000</ele>
        <time>2009-09-20T10:31:24Z</time>
      </trkpt>
      <trkpt lat="50.713428" lon="6.446327">
        <ele>176.540000</ele>
        <time>2009-09-20T10:31:38Z</time>
      </trkpt>
      <trkpt lat="50.713498" lon="6.446387">
        <ele>177.020000</ele>
        <time>2009-09-20T10:31:43Z</time>
      </trkpt>
      <trkpt lat="50.713579" lon="6.446532">
        <ele>176.540000</ele>
        <time>2009-09-20T10:31:53Z</time>
      </trkpt>
      <trkpt lat="50.713712" lon="6.446528">
        <ele>176.540000</ele>
        <time>2009-09-20T10:32:00Z</time>
      </trkpt>
      <trkpt lat="50.713727" lon="6.446574">
        <ele>176.540000</ele>
        <time>2009-09-20T10:32:02Z</time>
      </trkpt>
      <trkpt lat="50.713918" lon="6.446754">
        <ele>176.540000</ele>
        <time>2009-09-20T10:32:19Z</time>
      </trkpt>
      <trkpt lat="50.713975" lon="6.446951">
        <ele>176.540000</ele>
        <time>2009-09-20T10:32:30Z</time>
      </trkpt>
      <trkpt lat="50.714087" lon="6.447200">
        <ele>176.060000</ele>
        <time>2009-09-20T10:32:44Z</time>
      </trkpt>
      <trkpt lat="50.714091" lon="6.447263">
        <ele>176.060000</ele>
        <time>2009-09-20T10:32:46Z</time>
      </trkpt>
      <trkpt lat="50.714186" lon="6.447419">
        <ele>176.060000</ele>
        <time>2009-09-20T10:32:58Z</time>
      </trkpt>
      <trkpt lat="50.714240" lon="6.447461">
        <ele>176.060000</ele>
        <time>2009-09-20T10:33:03Z</time>
      </trkpt>
      <trkpt lat="50.714302" lon="6.447533">
        <ele>175.580000</ele>
        <time>2009-09-20T10:33:09Z</time>
      </trkpt>
      <trkpt lat="50.714398" lon="6.447739">
        <ele>175.580000</ele>
        <time>2009-09-20T10:33:22Z</time>
      </trkpt>
      <trkpt lat="50.714504" lon="6.447832">
        <ele>175.100000</ele>
        <time>2009-09-20T10:33:33Z</time>
      </trkpt>
      <trkpt lat="50.714575" lon="6.447772">
        <ele>175.100000</ele>
        <time>2009-09-20T10:33:36Z</time>
      </trkpt>
      <trkpt lat="50.714711" lon="6.447673">
        <ele>175.100000</ele>
        <time>2009-09-20T10:33:48Z</time>
      </trkpt>
      <trkpt lat="50.714744" lon="6.447651">
        <ele>175.100000</ele>
        <time>2009-09-20T10:33:50Z</time>
      </trkpt>
      <trkpt lat="50.714811" lon="6.447564">
        <ele>175.100000</ele>
        <time>2009-09-20T10:34:04Z</time>
      </trkpt>
      <trkpt lat="50.714972" lon="6.447472">
        <ele>175.580000</ele>
        <time>2009-09-20T10:34:19Z</time>
      </trkpt>
      <trkpt lat="50.715122" lon="6.447315">
        <ele>175.580000</ele>
        <time>2009-09-20T10:34:33Z</time>
      </trkpt>
      <trkpt lat="50.715138" lon="6.447297">
        <ele>175.580000</ele>
        <time>2009-09-20T10:34:35Z</time>
      </trkpt>
      <trkpt lat="50.715296" lon="6.447132">
        <ele>175.580000</ele>
        <time>2009-09-20T10:34:49Z</time>
      </trkpt>
      <trkpt lat="50.715451" lon="6.446980">
        <ele>175.580000</ele>
        <time>2009-09-20T10:35:02Z</time>
      </trkpt>
      <trkpt lat="50.715598" lon="6.446843">
        <ele>175.580000</ele>
        <time>2009-09-20T10:35:15Z</time>
      </trkpt>
      <trkpt lat="50.715601" lon="6.446836">
        <ele>175.580000</ele>
        <time>2009-09-20T10:35:16Z</time>
      </trkpt>
      <trkpt lat="50.715694" lon="6.446760">
        <ele>175.580000</ele>
        <time>2009-09-20T10:35:29Z</time>
      </trkpt>
      <trkpt lat="50.715853" lon="6.446600">
        <ele>176.060000</ele>
        <time>2009-09-20T10:35:43Z</time>
      </trkpt>
      <trkpt lat="50.715862" lon="6.446591">
        <ele>176.060000</ele>
        <time>2009-09-20T10:35:44Z</time>
      </trkpt>
      <trkpt lat="50.715991" lon="6.446497">
        <ele>176.060000</ele>
        <time>2009-09-20T10:35:57Z</time>
      </trkpt>
      <trkpt lat="50.716098" lon="6.446346">
        <ele>175.580000</ele>
        <time>2009-09-20T10:36:11Z</time>
      </trkpt>
      <trkpt lat="50.716177" lon="6.446285">
        <ele>175.100000</ele>
        <time>2009-09-20T10:36:18Z</time>
      </trkpt>
      <trkpt lat="50.716314" lon="6.446106">
        <ele>175.100000</ele>
        <time>2009-09-20T10:36:31Z</time>
      </trkpt>
      <trkpt lat="50.716432" lon="6.446035">
        <ele>175.580000</ele>
        <time>2009-09-20T10:36:47Z</time>
      </trkpt>
      <trkpt lat="50.716450" lon="6.446117">
        <ele>175.580000</ele>
        <time>2009-09-20T10:37:06Z</time>
      </trkpt>
      <trkpt lat="50.716442" lon="6.445998">
        <ele>175.100000</ele>
        <time>2009-09-20T10:37:42Z</time>
      </trkpt>
      <trkpt lat="50.716462" lon="6.445978">
        <ele>175.100000</ele>
        <time>2009-09-20T10:38:12Z</time>
      </trkpt>
      <trkpt lat="50.716408" lon="6.445944">
        <ele>175.100000</ele>
        <time>2009-09-20T10:38:20Z</time>
      </trkpt>
      <trkpt lat="50.716319" lon="6.445988">
        <ele>174.620000</ele>
        <time>2009-09-20T10:38:39Z</time>
      </trkpt>
      <trkpt lat="50.716288" lon="6.446003">
        <ele>171.730000</ele>
        <time>2009-09-20T10:51:41Z</time>
      </trkpt>
      <trkpt lat="50.716292" lon="6.446005">
        <ele>170.770000</ele>
        <time>2009-09-20T10:59:14Z</time>
      </trkpt>
      <trkpt lat="50.716237" lon="6.446032">
        <ele>170.290000</ele>
        <time>2009-09-20T10:59:43Z</time>
      </trkpt>
      <trkpt lat="50.716351" lon="6.446034">
        <ele>169.810000</ele>
        <time>2009-09-20T11:00:18Z</time>
      </trkpt>
      <trkpt lat="50.716378" lon="6.446002">
        <ele>167.890000</ele>
        <time>2009-09-20T11:08:54Z</time>
      </trkpt>
      <trkpt lat="50.716349" lon="6.446052">
        <ele>167.890000</ele>
        <time>2009-09-20T11:09:34Z</time>
      </trkpt>
      <trkpt lat="50.716399" lon="6.446030">
        <ele>167.890000</ele>
        <time>2009-09-20T11:09:44Z</time>
      </trkpt>
      <trkpt lat="50.716286" lon="6.446026">
        <ele>168.370000</ele>
        <time>2009-09-20T11:09:57Z</time>
      </trkpt>
      <trkpt lat="50.716302" lon="6.445983">
        <ele>167.890000</ele>
        <time>2009-09-20T11:10:12Z</time>
      </trkpt>
      <trkpt lat="50.716297" lon="6.446021">
        <ele>167.890000</ele>
        <time>2009-09-20T11:10:45Z</time>
      </trkpt>
      <trkpt lat="50.716304" lon="6.446044">
        <ele>167.410000</ele>
        <time>2009-09-20T11:12:11Z</time>
      </trkpt>
      <trkpt lat="50.716298" lon="6.445932">
        <ele>167.410000</ele>
        <time>2009-09-20T11:12:15Z</time>
      </trkpt>
    </trkseg>
  </trk>

</gpx>
